sensor_id;sensor_type;location;lat;lon;timestamp;temperature;humidity
76577;DHT22;65441;44.748;37.600;2023-08-06T00:01:05;28.31;49.60
76577;DHT22;65441;44.748;37.600;2023-08-06T00:03:38;28.23;49.74
76577;DHT22;65441;44.748;37.600;2023-08-06T00:06:12;28.21;49.99
76577;DHT22;65441;44.748;37.600;2023-08-06T00:08:46;28.16;50.15
76577;DHT22;65441;44.748;37.600;2023-08-06T00:11:19;28.10;50.53
76577;DHT22;65441;44.748;37.600;2023-08-06T00:13:53;28.06;50.72
76577;DHT22;65441;44.748;37.600;2023-08-06T00:16:28;27.99;50.74
76577;DHT22;65441;44.748;37.600;2023-08-06T00:19:01;27.95;51.07
76577;DHT22;65441;44.748;37.600;2023-08-06T00:21:35;27.87;51.15
76577;DHT22;65441;44.748;37.600;2023-08-06T00:24:08;27.86;51.39
76577;DHT22;65441;44.748;37.600;2023-08-06T00:26:42;27.82;51.21
76577;DHT22;65441;44.748;37.600;2023-08-06T00:29:16;27.74;51.24
76577;DHT22;65441;44.748;37.600;2023-08-06T00:31:51;27.69;51.92
76577;DHT22;65441;44.748;37.600;2023-08-06T00:34:24;27.69;51.98
76577;DHT22;65441;44.748;37.600;2023-08-06T00:36:58;27.70;52.01
76577;DHT22;65441;44.748;37.600;2023-08-06T00:39:31;27.69;51.52
76577;DHT22;65441;44.748;37.600;2023-08-06T00:42:05;27.66;52.20
76577;DHT22;65441;44.748;37.600;2023-08-06T00:44:39;27.61;51.68
76577;DHT22;65441;44.748;37.600;2023-08-06T00:47:15;27.69;53.45
76577;DHT22;65441;44.748;37.600;2023-08-06T00:49:50;27.60;52.48
76577;DHT22;65441;44.748;37.600;2023-08-06T00:52:24;27.57;54.52
76577;DHT22;65441;44.748;37.600;2023-08-06T00:54:58;27.52;52.59
76577;DHT22;65441;44.748;37.600;2023-08-06T00:57:32;27.46;53.75
76577;DHT22;65441;44.748;37.600;2023-08-06T01:00:07;27.40;52.54
76577;DHT22;65441;44.748;37.600;2023-08-06T01:02:42;27.39;54.41
76577;DHT22;65441;44.748;37.600;2023-08-06T01:05:15;27.42;54.03
76577;DHT22;65441;44.748;37.600;2023-08-06T01:07:58;27.39;55.11
76577;DHT22;65441;44.748;37.600;2023-08-06T01:10:46;27.34;52.72
76577;DHT22;65441;44.748;37.600;2023-08-06T01:13:27;27.37;55.91
76577;DHT22;65441;44.748;37.600;2023-08-06T01:16:03;27.36;52.65
76577;DHT22;65441;44.748;37.600;2023-08-06T01:18:39;27.34;53.15
76577;DHT22;65441;44.748;37.600;2023-08-06T01:21:17;27.37;53.07
76577;DHT22;65441;44.748;37.600;2023-08-06T01:23:51;27.38;53.74
76577;DHT22;65441;44.748;37.600;2023-08-06T01:26:32;27.22;52.95
76577;DHT22;65441;44.748;37.600;2023-08-06T01:29:11;27.25;54.26
76577;DHT22;65441;44.748;37.600;2023-08-06T01:31:48;27.24;53.48
76577;DHT22;65441;44.748;37.600;2023-08-06T01:34:24;27.21;54.22
76577;DHT22;65441;44.748;37.600;2023-08-06T01:37:01;27.17;52.98
76577;DHT22;65441;44.748;37.600;2023-08-06T01:39:34;27.16;57.64
76577;DHT22;65441;44.748;37.600;2023-08-06T01:42:09;27.12;54.55
76577;DHT22;65441;44.748;37.600;2023-08-06T01:44:42;27.01;54.10
76577;DHT22;65441;44.748;37.600;2023-08-06T01:47:16;27.04;55.46
76577;DHT22;65441;44.748;37.600;2023-08-06T01:49:49;26.93;56.18
76577;DHT22;65441;44.748;37.600;2023-08-06T01:52:26;26.82;54.96
76577;DHT22;65441;44.748;37.600;2023-08-06T01:54:59;26.85;54.19
76577;DHT22;65441;44.748;37.600;2023-08-06T01:57:33;26.82;55.00
76577;DHT22;65441;44.748;37.600;2023-08-06T02:00:07;26.86;55.42
76577;DHT22;65441;44.748;37.600;2023-08-06T02:02:46;26.73;57.80
76577;DHT22;65441;44.748;37.600;2023-08-06T02:05:20;26.71;56.37
76577;DHT22;65441;44.748;37.600;2023-08-06T02:07:55;26.73;59.11
76577;DHT22;65441;44.748;37.600;2023-08-06T02:10:28;26.82;58.57
76577;DHT22;65441;44.748;37.600;2023-08-06T02:13:01;26.46;57.53
76577;DHT22;65441;44.748;37.600;2023-08-06T02:15:36;26.35;60.21
76577;DHT22;65441;44.748;37.600;2023-08-06T02:18:14;26.25;61.18
76577;DHT22;65441;44.748;37.600;2023-08-06T02:20:55;26.16;58.32
76577;DHT22;65441;44.748;37.600;2023-08-06T02:23:31;26.19;59.31
76577;DHT22;65441;44.748;37.600;2023-08-06T02:26:05;25.91;60.35
76577;DHT22;65441;44.748;37.600;2023-08-06T02:28:38;25.92;62.92
76577;DHT22;65441;44.748;37.600;2023-08-06T02:31:12;25.92;61.72
76577;DHT22;65441;44.748;37.600;2023-08-06T02:33:45;25.71;63.00
76577;DHT22;65441;44.748;37.600;2023-08-06T02:36:18;25.43;63.44
76577;DHT22;65441;44.748;37.600;2023-08-06T02:38:53;25.34;62.56
76577;DHT22;65441;44.748;37.600;2023-08-06T02:41:28;25.37;62.99
76577;DHT22;65441;44.748;37.600;2023-08-06T02:44:03;25.33;64.06
76577;DHT22;65441;44.748;37.600;2023-08-06T02:46:36;25.23;63.19
76577;DHT22;65441;44.748;37.600;2023-08-06T02:49:10;25.00;63.18
76577;DHT22;65441;44.748;37.600;2023-08-06T02:51:45;25.14;62.91
76577;DHT22;65441;44.748;37.600;2023-08-06T02:54:20;25.25;64.79
76577;DHT22;65441;44.748;37.600;2023-08-06T02:56:53;25.12;63.67
76577;DHT22;65441;44.748;37.600;2023-08-06T02:59:31;24.95;63.37
76577;DHT22;65441;44.748;37.600;2023-08-06T03:02:12;24.85;63.33
76577;DHT22;65441;44.748;37.600;2023-08-06T03:05:15;24.82;64.04
76577;DHT22;65441;44.748;37.600;2023-08-06T03:07:51;24.83;64.69
76577;DHT22;65441;44.748;37.600;2023-08-06T03:10:30;24.92;65.16
76577;DHT22;65441;44.748;37.600;2023-08-06T03:13:07;25.01;64.14
76577;DHT22;65441;44.748;37.600;2023-08-06T03:15:40;25.15;64.32
76577;DHT22;65441;44.748;37.600;2023-08-06T03:18:16;25.39;64.76
76577;DHT22;65441;44.748;37.600;2023-08-06T03:20:50;25.65;63.39
76577;DHT22;65441;44.748;37.600;2023-08-06T03:23:24;25.82;64.53
76577;DHT22;65441;44.748;37.600;2023-08-06T03:26:02;25.67;61.48
76577;DHT22;65441;44.748;37.600;2023-08-06T03:28:37;25.64;62.19
76577;DHT22;65441;44.748;37.600;2023-08-06T03:31:11;25.69;62.52
76577;DHT22;65441;44.748;37.600;2023-08-06T03:33:48;25.84;61.57
76577;DHT22;65441;44.748;37.600;2023-08-06T03:36:28;26.12;63.08
76577;DHT22;65441;44.748;37.600;2023-08-06T03:39:01;26.32;64.58
76577;DHT22;65441;44.748;37.600;2023-08-06T03:41:38;26.37;61.41
76577;DHT22;65441;44.748;37.600;2023-08-06T03:44:12;26.78;62.28
76577;DHT22;65441;44.748;37.600;2023-08-06T03:46:46;26.83;61.95
76577;DHT22;65441;44.748;37.600;2023-08-06T03:49:20;27.09;61.02
76577;DHT22;65441;44.748;37.600;2023-08-06T03:51:54;27.42;58.59
76577;DHT22;65441;44.748;37.600;2023-08-06T03:54:28;27.63;59.62
76577;DHT22;65441;44.748;37.600;2023-08-06T03:57:03;27.88;55.66
76577;DHT22;65441;44.748;37.600;2023-08-06T03:59:37;28.00;54.78
76577;DHT22;65441;44.748;37.600;2023-08-06T04:02:12;28.26;55.04
76577;DHT22;65441;44.748;37.600;2023-08-06T04:04:45;28.54;56.13
76577;DHT22;65441;44.748;37.600;2023-08-06T04:07:19;28.84;52.12
76577;DHT22;65441;44.748;37.600;2023-08-06T04:09:54;29.52;53.77
76577;DHT22;65441;44.748;37.600;2023-08-06T04:12:32;29.89;50.81
76577;DHT22;65441;44.748;37.600;2023-08-06T04:15:09;30.25;50.65
76577;DHT22;65441;44.748;37.600;2023-08-06T04:17:42;30.42;49.52
76577;DHT22;65441;44.748;37.600;2023-08-06T04:20:16;30.49;50.14
76577;DHT22;65441;44.748;37.600;2023-08-06T04:22:49;30.60;51.33
76577;DHT22;65441;44.748;37.600;2023-08-06T04:25:23;30.57;50.94
76577;DHT22;65441;44.748;37.600;2023-08-06T04:27:59;30.62;50.67
76577;DHT22;65441;44.748;37.600;2023-08-06T04:30:34;31.01;49.46
76577;DHT22;65441;44.748;37.600;2023-08-06T04:33:08;31.18;48.86
76577;DHT22;65441;44.748;37.600;2023-08-06T04:35:43;31.24;49.18
76577;DHT22;65441;44.748;37.600;2023-08-06T04:38:17;31.33;47.95
76577;DHT22;65441;44.748;37.600;2023-08-06T04:40:51;31.63;48.04
76577;DHT22;65441;44.748;37.600;2023-08-06T04:43:29;31.85;45.28
76577;DHT22;65441;44.748;37.600;2023-08-06T04:46:08;32.02;47.79
76577;DHT22;65441;44.748;37.600;2023-08-06T04:48:43;32.18;45.80
76577;DHT22;65441;44.748;37.600;2023-08-06T04:51:19;32.39;45.99
76577;DHT22;65441;44.748;37.600;2023-08-06T04:53:53;32.61;45.03
76577;DHT22;65441;44.748;37.600;2023-08-06T04:56:30;32.81;42.81
76577;DHT22;65441;44.748;37.600;2023-08-06T04:59:06;33.06;41.37
76577;DHT22;65441;44.748;37.600;2023-08-06T05:01:43;33.26;43.75
76577;DHT22;65441;44.748;37.600;2023-08-06T05:04:19;33.25;43.78
76577;DHT22;65441;44.748;37.600;2023-08-06T05:06:54;33.77;41.97
76577;DHT22;65441;44.748;37.600;2023-08-06T05:09:31;33.75;40.42
76577;DHT22;65441;44.748;37.600;2023-08-06T05:12:11;33.93;39.14
76577;DHT22;65441;44.748;37.600;2023-08-06T05:14:52;33.96;40.02
76577;DHT22;65441;44.748;37.600;2023-08-06T05:17:32;34.23;40.82
76577;DHT22;65441;44.748;37.600;2023-08-06T05:20:11;34.34;38.69
76577;DHT22;65441;44.748;37.600;2023-08-06T05:22:49;34.56;40.00
76577;DHT22;65441;44.748;37.600;2023-08-06T05:25:28;34.92;39.01
76577;DHT22;65441;44.748;37.600;2023-08-06T05:28:04;35.35;36.98
76577;DHT22;65441;44.748;37.600;2023-08-06T05:30:44;35.56;36.04
76577;DHT22;65441;44.748;37.600;2023-08-06T05:33:23;35.69;36.41
76577;DHT22;65441;44.748;37.600;2023-08-06T05:36:00;35.83;35.11
76577;DHT22;65441;44.748;37.600;2023-08-06T05:38:37;35.89;34.05
76577;DHT22;65441;44.748;37.600;2023-08-06T05:41:17;36.02;33.65
76577;DHT22;65441;44.748;37.600;2023-08-06T05:43:55;35.90;34.73
76577;DHT22;65441;44.748;37.600;2023-08-06T05:46:34;35.97;34.25
76577;DHT22;65441;44.748;37.600;2023-08-06T05:49:13;36.21;33.58
76577;DHT22;65441;44.748;37.600;2023-08-06T05:51:51;36.32;34.75
76577;DHT22;65441;44.748;37.600;2023-08-06T05:54:29;36.33;33.69
76577;DHT22;65441;44.748;37.600;2023-08-06T05:57:08;36.38;34.15
76577;DHT22;65441;44.748;37.600;2023-08-06T05:59:48;36.61;34.01
76577;DHT22;65441;44.748;37.600;2023-08-06T06:02:28;36.82;33.11
76577;DHT22;65441;44.748;37.600;2023-08-06T06:05:09;36.81;32.98
76577;DHT22;65441;44.748;37.600;2023-08-06T06:07:46;36.95;31.61
76577;DHT22;65441;44.748;37.600;2023-08-06T06:10:21;37.04;32.22
76577;DHT22;65441;44.748;37.600;2023-08-06T06:12:58;36.96;31.86
76577;DHT22;65441;44.748;37.600;2023-08-06T06:15:36;37.16;32.12
76577;DHT22;65441;44.748;37.600;2023-08-06T06:18:15;37.00;34.11
76577;DHT22;65441;44.748;37.600;2023-08-06T06:20:49;37.13;32.28
76577;DHT22;65441;44.748;37.600;2023-08-06T06:23:29;37.17;32.82
76577;DHT22;65441;44.748;37.600;2023-08-06T06:26:04;37.02;32.48
76577;DHT22;65441;44.748;37.600;2023-08-06T06:28:41;37.21;32.08
76577;DHT22;65441;44.748;37.600;2023-08-06T06:31:17;37.64;32.01
76577;DHT22;65441;44.748;37.600;2023-08-06T06:33:54;37.78;31.07
76577;DHT22;65441;44.748;37.600;2023-08-06T06:36:31;37.79;31.51
76577;DHT22;65441;44.748;37.600;2023-08-06T06:39:05;37.79;31.19
76577;DHT22;65441;44.748;37.600;2023-08-06T06:41:40;37.62;31.62
76577;DHT22;65441;44.748;37.600;2023-08-06T06:44:30;37.55;31.59
76577;DHT22;65441;44.748;37.600;2023-08-06T06:47:11;37.64;31.99
76577;DHT22;65441;44.748;37.600;2023-08-06T06:49:53;37.57;31.51
76577;DHT22;65441;44.748;37.600;2023-08-06T06:52:31;37.32;32.47
76577;DHT22;65441;44.748;37.600;2023-08-06T06:55:10;37.64;31.38
76577;DHT22;65441;44.748;37.600;2023-08-06T06:58:02;37.69;31.26
76577;DHT22;65441;44.748;37.600;2023-08-06T07:00:43;37.61;32.13
76577;DHT22;65441;44.748;37.600;2023-08-06T07:03:25;37.69;32.33
76577;DHT22;65441;44.748;37.600;2023-08-06T07:06:05;37.56;32.08
76577;DHT22;65441;44.748;37.600;2023-08-06T07:08:48;37.75;31.70
76577;DHT22;65441;44.748;37.600;2023-08-06T07:11:28;37.61;31.19
76577;DHT22;65441;44.748;37.600;2023-08-06T07:14:07;37.56;31.98
76577;DHT22;65441;44.748;37.600;2023-08-06T07:16:46;37.78;31.67
76577;DHT22;65441;44.748;37.600;2023-08-06T07:19:26;37.80;31.56
76577;DHT22;65441;44.748;37.600;2023-08-06T07:22:09;37.78;31.76
76577;DHT22;65441;44.748;37.600;2023-08-06T07:24:47;37.94;31.79
76577;DHT22;65441;44.748;37.600;2023-08-06T07:27:26;37.77;31.97
76577;DHT22;65441;44.748;37.600;2023-08-06T07:30:02;37.86;31.94
76577;DHT22;65441;44.748;37.600;2023-08-06T07:32:41;37.84;32.59
76577;DHT22;65441;44.748;37.600;2023-08-06T07:35:21;37.81;31.45
76577;DHT22;65441;44.748;37.600;2023-08-06T07:37:58;37.76;31.10
76577;DHT22;65441;44.748;37.600;2023-08-06T07:40:39;38.28;33.01
76577;DHT22;65441;44.748;37.600;2023-08-06T07:43:18;38.35;31.98
76577;DHT22;65441;44.748;37.600;2023-08-06T07:46:00;38.12;31.03
76577;DHT22;65441;44.748;37.600;2023-08-06T07:48:39;38.22;30.74
76577;DHT22;65441;44.748;37.600;2023-08-06T07:51:18;38.36;30.51
76577;DHT22;65441;44.748;37.600;2023-08-06T07:53:57;38.22;30.94
76577;DHT22;65441;44.748;37.600;2023-08-06T07:56:36;38.20;30.29
76577;DHT22;65441;44.748;37.600;2023-08-06T07:59:16;38.20;31.74
76577;DHT22;65441;44.748;37.600;2023-08-06T08:01:55;38.17;31.67
76577;DHT22;65441;44.748;37.600;2023-08-06T08:04:35;38.24;32.18
76577;DHT22;65441;44.748;37.600;2023-08-06T08:07:10;38.05;31.69
76577;DHT22;65441;44.748;37.600;2023-08-06T08:09:53;38.10;31.84
76577;DHT22;65441;44.748;37.600;2023-08-06T08:12:31;38.11;32.45
76577;DHT22;65441;44.748;37.600;2023-08-06T08:15:11;38.15;32.21
76577;DHT22;65441;44.748;37.600;2023-08-06T08:17:50;38.41;32.14
76577;DHT22;65441;44.748;37.600;2023-08-06T08:20:28;38.07;32.35
76577;DHT22;65441;44.748;37.600;2023-08-06T08:23:05;38.14;31.26
76577;DHT22;65441;44.748;37.600;2023-08-06T08:25:45;38.24;31.67
76577;DHT22;65441;44.748;37.600;2023-08-06T08:28:23;38.38;32.41
76577;DHT22;65441;44.748;37.600;2023-08-06T08:31:01;38.50;31.09
76577;DHT22;65441;44.748;37.600;2023-08-06T08:33:37;38.32;32.26
76577;DHT22;65441;44.748;37.600;2023-08-06T08:36:17;38.50;31.93
76577;DHT22;65441;44.748;37.600;2023-08-06T08:38:57;38.50;31.77
76577;DHT22;65441;44.748;37.600;2023-08-06T08:41:34;38.64;31.49
76577;DHT22;65441;44.748;37.600;2023-08-06T08:44:22;38.55;31.61
76577;DHT22;65441;44.748;37.600;2023-08-06T08:47:05;38.38;32.78
76577;DHT22;65441;44.748;37.600;2023-08-06T08:49:45;38.79;32.63
76577;DHT22;65441;44.748;37.600;2023-08-06T08:52:25;38.70;30.56
76577;DHT22;65441;44.748;37.600;2023-08-06T08:55:06;39.09;31.07
76577;DHT22;65441;44.748;37.600;2023-08-06T08:57:47;38.82;31.45
76577;DHT22;65441;44.748;37.600;2023-08-06T09:00:26;38.77;31.67
76577;DHT22;65441;44.748;37.600;2023-08-06T09:03:08;38.86;30.34
76577;DHT22;65441;44.748;37.600;2023-08-06T09:05:50;38.68;31.40
76577;DHT22;65441;44.748;37.600;2023-08-06T09:08:33;38.85;30.64
76577;DHT22;65441;44.748;37.600;2023-08-06T09:11:10;38.28;30.50
76577;DHT22;65441;44.748;37.600;2023-08-06T09:13:51;38.24;31.18
76577;DHT22;65441;44.748;37.600;2023-08-06T09:16:31;38.47;31.08
76577;DHT22;65441;44.748;37.600;2023-08-06T09:19:14;38.26;30.95
76577;DHT22;65441;44.748;37.600;2023-08-06T09:21:56;38.55;30.93
76577;DHT22;65441;44.748;37.600;2023-08-06T09:24:39;39.00;30.64
76577;DHT22;65441;44.748;37.600;2023-08-06T09:27:20;38.83;30.43
76577;DHT22;65441;44.748;37.600;2023-08-06T09:30:03;39.02;31.22
76577;DHT22;65441;44.748;37.600;2023-08-06T09:32:50;38.98;30.44
76577;DHT22;65441;44.748;37.600;2023-08-06T09:35:30;39.50;30.56
76577;DHT22;65441;44.748;37.600;2023-08-06T09:38:11;39.20;30.29
76577;DHT22;65441;44.748;37.600;2023-08-06T09:40:49;38.81;30.29
76577;DHT22;65441;44.748;37.600;2023-08-06T09:43:28;38.65;30.45
76577;DHT22;65441;44.748;37.600;2023-08-06T09:46:13;38.88;30.45
76577;DHT22;65441;44.748;37.600;2023-08-06T09:48:54;38.82;31.22
76577;DHT22;65441;44.748;37.600;2023-08-06T09:51:33;38.99;30.74
76577;DHT22;65441;44.748;37.600;2023-08-06T09:54:18;38.54;30.51
76577;DHT22;65441;44.748;37.600;2023-08-06T09:56:57;38.93;29.73
76577;DHT22;65441;44.748;37.600;2023-08-06T09:59:32;38.74;30.45
76577;DHT22;65441;44.748;37.600;2023-08-06T10:02:14;38.98;29.84
76577;DHT22;65441;44.748;37.600;2023-08-06T10:04:54;38.71;30.00
76577;DHT22;65441;44.748;37.600;2023-08-06T10:07:35;38.77;30.50
76577;DHT22;65441;44.748;37.600;2023-08-06T10:10:15;38.44;31.56
76577;DHT22;65441;44.748;37.600;2023-08-06T10:12:58;38.34;31.06
76577;DHT22;65441;44.748;37.600;2023-08-06T10:15:37;38.25;32.15
76577;DHT22;65441;44.748;37.600;2023-08-06T10:18:17;38.30;30.58
76577;DHT22;65441;44.748;37.600;2023-08-06T10:20:57;38.43;31.17
76577;DHT22;65441;44.748;37.600;2023-08-06T10:23:40;38.35;30.90
76577;DHT22;65441;44.748;37.600;2023-08-06T10:26:18;38.51;31.57
76577;DHT22;65441;44.748;37.600;2023-08-06T10:28:57;38.78;30.27
76577;DHT22;65441;44.748;37.600;2023-08-06T10:31:53;38.80;30.63
76577;DHT22;65441;44.748;37.600;2023-08-06T10:34:54;38.69;29.93
76577;DHT22;65441;44.748;37.600;2023-08-06T10:37:38;38.66;30.57
76577;DHT22;65441;44.748;37.600;2023-08-06T10:40:13;38.64;31.09
76577;DHT22;65441;44.748;37.600;2023-08-06T10:42:55;38.54;30.80
76577;DHT22;65441;44.748;37.600;2023-08-06T10:45:29;38.85;30.52
76577;DHT22;65441;44.748;37.600;2023-08-06T10:48:03;38.48;30.82
76577;DHT22;65441;44.748;37.600;2023-08-06T10:50:39;38.53;30.55
76577;DHT22;65441;44.748;37.600;2023-08-06T10:53:14;38.76;31.51
76577;DHT22;65441;44.748;37.600;2023-08-06T10:55:46;39.08;29.74
76577;DHT22;65441;44.748;37.600;2023-08-06T10:58:22;39.24;29.24
76577;DHT22;65441;44.748;37.600;2023-08-06T11:00:58;39.58;29.50
76577;DHT22;65441;44.748;37.600;2023-08-06T11:03:33;39.74;28.84
76577;DHT22;65441;44.748;37.600;2023-08-06T11:06:23;39.70;28.99
76577;DHT22;65441;44.748;37.600;2023-08-06T11:09:04;39.70;29.28
76577;DHT22;65441;44.748;37.600;2023-08-06T11:11:37;39.64;28.83
76577;DHT22;65441;44.748;37.600;2023-08-06T11:14:17;39.38;30.83
76577;DHT22;65441;44.748;37.600;2023-08-06T11:16:51;39.48;30.30
76577;DHT22;65441;44.748;37.600;2023-08-06T11:19:23;39.64;28.32
76577;DHT22;65441;44.748;37.600;2023-08-06T11:21:58;39.40;29.31
76577;DHT22;65441;44.748;37.600;2023-08-06T11:24:35;39.45;29.23
76577;DHT22;65441;44.748;37.600;2023-08-06T11:27:16;39.56;29.44
76577;DHT22;65441;44.748;37.600;2023-08-06T11:29:51;39.32;29.14
76577;DHT22;65441;44.748;37.600;2023-08-06T11:32:24;39.44;29.49
76577;DHT22;65441;44.748;37.600;2023-08-06T11:35:08;39.29;29.53
76577;DHT22;65441;44.748;37.600;2023-08-06T11:37:46;39.21;29.32
76577;DHT22;65441;44.748;37.600;2023-08-06T11:40:21;39.14;29.10
76577;DHT22;65441;44.748;37.600;2023-08-06T11:42:54;39.22;30.71
76577;DHT22;65441;44.748;37.600;2023-08-06T11:45:28;39.10;30.17
76577;DHT22;65441;44.748;37.600;2023-08-06T11:48:01;39.44;30.36
76577;DHT22;65441;44.748;37.600;2023-08-06T11:50:38;39.35;29.66
76577;DHT22;65441;44.748;37.600;2023-08-06T11:53:14;39.35;30.03
76577;DHT22;65441;44.748;37.600;2023-08-06T11:56:01;39.29;30.18
76577;DHT22;65441;44.748;37.600;2023-08-06T11:58:38;39.08;29.57
76577;DHT22;65441;44.748;37.600;2023-08-06T12:01:18;39.00;29.61
76577;DHT22;65441;44.748;37.600;2023-08-06T12:03:52;38.96;30.19
76577;DHT22;65441;44.748;37.600;2023-08-06T12:06:29;38.75;29.87
76577;DHT22;65441;44.748;37.600;2023-08-06T12:09:04;38.69;30.68
76577;DHT22;65441;44.748;37.600;2023-08-06T12:11:38;38.66;31.41
76577;DHT22;65441;44.748;37.600;2023-08-06T12:14:12;38.51;30.69
76577;DHT22;65441;44.748;37.600;2023-08-06T12:16:46;38.52;30.91
76577;DHT22;65441;44.748;37.600;2023-08-06T12:19:19;38.39;30.36
76577;DHT22;65441;44.748;37.600;2023-08-06T12:21:54;38.64;31.61
76577;DHT22;65441;44.748;37.600;2023-08-06T12:24:29;38.47;31.16
76577;DHT22;65441;44.748;37.600;2023-08-06T12:27:03;38.48;30.83
76577;DHT22;65441;44.748;37.600;2023-08-06T12:29:39;38.46;31.58
76577;DHT22;65441;44.748;37.600;2023-08-06T12:32:11;38.58;30.67
76577;DHT22;65441;44.748;37.600;2023-08-06T12:34:41;38.60;31.58
76577;DHT22;65441;44.748;37.600;2023-08-06T12:37:22;38.60;30.84
76577;DHT22;65441;44.748;37.600;2023-08-06T12:39:57;38.26;31.01
76577;DHT22;65441;44.748;37.600;2023-08-06T12:42:31;38.46;32.22
76577;DHT22;65441;44.748;37.600;2023-08-06T12:45:01;38.43;31.12
76577;DHT22;65441;44.748;37.600;2023-08-06T12:47:34;38.49;32.70
76577;DHT22;65441;44.748;37.600;2023-08-06T12:50:07;38.58;31.11
76577;DHT22;65441;44.748;37.600;2023-08-06T12:52:36;38.21;31.54
76577;DHT22;65441;44.748;37.600;2023-08-06T12:55:11;38.00;32.24
76577;DHT22;65441;44.748;37.600;2023-08-06T12:57:42;37.77;32.98
76577;DHT22;65441;44.748;37.600;2023-08-06T13:00:12;37.85;31.99
76577;DHT22;65441;44.748;37.600;2023-08-06T13:02:45;37.94;31.70
76577;DHT22;65441;44.748;37.600;2023-08-06T13:05:18;37.90;31.40
76577;DHT22;65441;44.748;37.600;2023-08-06T13:07:48;37.94;31.95
76577;DHT22;65441;44.748;37.600;2023-08-06T13:10:21;38.19;31.98
76577;DHT22;65441;44.748;37.600;2023-08-06T13:12:56;38.23;30.88
76577;DHT22;65441;44.748;37.600;2023-08-06T13:15:26;38.19;31.10
76577;DHT22;65441;44.748;37.600;2023-08-06T13:17:56;37.67;30.83
76577;DHT22;65441;44.748;37.600;2023-08-06T13:20:32;37.48;31.71
76577;DHT22;65441;44.748;37.600;2023-08-06T13:23:06;37.47;31.34
76577;DHT22;65441;44.748;37.600;2023-08-06T13:25:40;37.46;31.28
76577;DHT22;65441;44.748;37.600;2023-08-06T13:28:15;37.43;30.88
76577;DHT22;65441;44.748;37.600;2023-08-06T13:30:49;37.40;30.88
76577;DHT22;65441;44.748;37.600;2023-08-06T13:33:22;37.28;30.87
76577;DHT22;65441;44.748;37.600;2023-08-06T13:35:58;37.08;31.19
76577;DHT22;65441;44.748;37.600;2023-08-06T13:38:29;36.88;31.96
76577;DHT22;65441;44.748;37.600;2023-08-06T13:41:04;36.80;31.76
76577;DHT22;65441;44.748;37.600;2023-08-06T13:43:38;36.63;31.64
76577;DHT22;65441;44.748;37.600;2023-08-06T13:46:13;36.51;32.18
76577;DHT22;65441;44.748;37.600;2023-08-06T13:48:50;36.32;32.66
76577;DHT22;65441;44.748;37.600;2023-08-06T13:51:25;36.29;33.30
76577;DHT22;65441;44.748;37.600;2023-08-06T13:53:57;36.17;33.09
76577;DHT22;65441;44.748;37.600;2023-08-06T13:56:31;36.15;33.59
76577;DHT22;65441;44.748;37.600;2023-08-06T13:59:05;36.22;33.62
76577;DHT22;65441;44.748;37.600;2023-08-06T14:01:35;36.04;33.54
76577;DHT22;65441;44.748;37.600;2023-08-06T14:04:05;36.00;33.28
76577;DHT22;65441;44.748;37.600;2023-08-06T14:06:38;35.86;33.57
76577;DHT22;65441;44.748;37.600;2023-08-06T14:09:11;35.54;33.79
76577;DHT22;65441;44.748;37.600;2023-08-06T14:11:48;35.58;34.35
76577;DHT22;65441;44.748;37.600;2023-08-06T14:14:25;35.41;35.06
76577;DHT22;65441;44.748;37.600;2023-08-06T14:17:00;35.35;35.35
76577;DHT22;65441;44.748;37.600;2023-08-06T14:19:34;35.31;34.40
76577;DHT22;65441;44.748;37.600;2023-08-06T14:22:07;35.25;35.15
76577;DHT22;65441;44.748;37.600;2023-08-06T14:24:40;35.19;36.02
76577;DHT22;65441;44.748;37.600;2023-08-06T14:27:14;35.19;36.68
76577;DHT22;65441;44.748;37.600;2023-08-06T14:29:48;35.22;36.00
76577;DHT22;65441;44.748;37.600;2023-08-06T14:32:22;35.20;36.11
76577;DHT22;65441;44.748;37.600;2023-08-06T14:34:57;35.16;36.17
76577;DHT22;65441;44.748;37.600;2023-08-06T14:37:29;35.05;35.46
76577;DHT22;65441;44.748;37.600;2023-08-06T14:40:01;35.06;35.89
76577;DHT22;65441;44.748;37.600;2023-08-06T14:42:35;34.93;36.81
76577;DHT22;65441;44.748;37.600;2023-08-06T14:45:09;34.98;36.83
76577;DHT22;65441;44.748;37.600;2023-08-06T14:47:43;34.93;37.04
76577;DHT22;65441;44.748;37.600;2023-08-06T14:50:17;34.88;37.30
76577;DHT22;65441;44.748;37.600;2023-08-06T14:52:49;34.69;37.91
76577;DHT22;65441;44.748;37.600;2023-08-06T14:55:30;34.48;37.70
76577;DHT22;65441;44.748;37.600;2023-08-06T14:58:12;34.46;38.65
76577;DHT22;65441;44.748;37.600;2023-08-06T15:00:50;34.36;38.61
76577;DHT22;65441;44.748;37.600;2023-08-06T15:03:25;34.22;38.02
76577;DHT22;65441;44.748;37.600;2023-08-06T15:05:56;34.02;37.92
76577;DHT22;65441;44.748;37.600;2023-08-06T15:08:27;33.97;38.32
76577;DHT22;65441;44.748;37.600;2023-08-06T15:10:57;33.93;39.16
76577;DHT22;65441;44.748;37.600;2023-08-06T15:13:30;33.86;39.17
76577;DHT22;65441;44.748;37.600;2023-08-06T15:15:59;33.85;39.19
76577;DHT22;65441;44.748;37.600;2023-08-06T15:18:33;33.80;39.67
76577;DHT22;65441;44.748;37.600;2023-08-06T15:21:07;33.72;40.20
76577;DHT22;65441;44.748;37.600;2023-08-06T15:23:42;33.57;39.88
76577;DHT22;65441;44.748;37.600;2023-08-06T15:26:15;33.48;39.95
76577;DHT22;65441;44.748;37.600;2023-08-06T15:28:49;33.50;40.68
76577;DHT22;65441;44.748;37.600;2023-08-06T15:31:21;33.44;40.78
76577;DHT22;65441;44.748;37.600;2023-08-06T15:34:00;33.37;41.04
76577;DHT22;65441;44.748;37.600;2023-08-06T15:36:32;33.32;42.39
76577;DHT22;65441;44.748;37.600;2023-08-06T15:39:03;33.35;41.25
76577;DHT22;65441;44.748;37.600;2023-08-06T15:41:36;33.16;42.36
76577;DHT22;65441;44.748;37.600;2023-08-06T15:44:08;33.11;42.05
76577;DHT22;65441;44.748;37.600;2023-08-06T15:46:41;33.01;42.36
76577;DHT22;65441;44.748;37.600;2023-08-06T15:49:11;32.96;42.24
76577;DHT22;65441;44.748;37.600;2023-08-06T15:51:41;32.98;42.52
76577;DHT22;65441;44.748;37.600;2023-08-06T15:54:10;32.90;43.64
76577;DHT22;65441;44.748;37.600;2023-08-06T15:56:40;32.87;42.54
76577;DHT22;65441;44.748;37.600;2023-08-06T15:59:31;32.82;42.54
76577;DHT22;65441;44.748;37.600;2023-08-06T16:02:08;32.73;43.40
76577;DHT22;65441;44.748;37.600;2023-08-06T16:04:39;32.67;43.39
76577;DHT22;65441;44.748;37.600;2023-08-06T16:07:11;32.62;44.45
76577;DHT22;65441;44.748;37.600;2023-08-06T16:09:45;32.57;45.90
76577;DHT22;65441;44.748;37.600;2023-08-06T16:12:17;32.44;47.38